Time;durP1;ratioP1;P1;durP2;ratioP2;P2;SDS_P1;SDS_P2;PMS_P1;PMS_P2;Temp;Humidity;BMP_temperature;BMP_pressure;BME280_temperature;BME280_humidity;BME280_pressure;Samples;Min_cycle;Max_cycle;Signal;HPM_P1;HPM_P2
2020/12/19 00:00:28;;;;;;;408.27;245.75;;;;;;;;;;5053670;28;20114;-51
2020/12/19 00:02:54;;;;;;;414.00;245.18;;;;;;;;;;5057079;28;20025;-53
2020/12/19 00:05:20;;;;;;;402.42;238.43;;;;;;;;;;5055330;28;20028;-53
2020/12/19 00:07:47;;;;;;;397.73;235.68;;;;;;;;;;5061618;28;20441;-52
2020/12/19 00:10:13;;;;;;;377.40;221.32;;;;;;;;;;5053897;28;20599;-52
2020/12/19 00:12:39;;;;;;;371.27;224.07;;;;;;;;;;5053063;28;20041;-55
2020/12/19 00:15:05;;;;;;;372.40;214.93;;;;;;;;;;5055852;28;20029;-53
2020/12/19 00:17:31;;;;;;;369.85;213.77;;;;;;;;;;5052503;28;20064;-51
2020/12/19 00:19:57;;;;;;;386.30;217.68;;;;;;;;;;5054493;28;20492;-53
2020/12/19 00:22:23;;;;;;;376.00;218.57;;;;;;;;;;5066253;28;20070;-53
2020/12/19 00:24:49;;;;;;;358.48;202.85;;;;;;;;;;5069835;28;20033;-51
2020/12/19 00:27:15;;;;;;;344.08;199.05;;;;;;;;;;5068145;28;20029;-52
2020/12/19 00:29:41;;;;;;;337.67;192.82;;;;;;;;;;5069092;28;20024;-51
2020/12/19 00:32:08;;;;;;;339.35;188.85;;;;;;;;;;5070969;28;20028;-55
2020/12/19 00:34:34;;;;;;;326.00;181.25;;;;;;;;;;5070117;28;20025;-54
2020/12/19 00:37:01;;;;;;;325.75;180.27;;;;;;;;;;5070835;28;20028;-54
2020/12/19 00:39:27;;;;;;;322.25;173.07;;;;;;;;;;5070629;28;20029;-55
2020/12/19 00:41:53;;;;;;;310.35;170.68;;;;;;;;;;5071472;28;20507;-54
2020/12/19 00:44:19;;;;;;;306.65;168.02;;;;;;;;;;5070702;28;20025;-53
2020/12/19 00:46:52;;;;;;;305.05;167.68;;;;;;;;;;5071407;28;20547;-55
2020/12/19 00:49:18;;;;;;;315.90;171.68;;;;;;;;;;5069866;28;20108;-53
2020/12/19 00:51:45;;;;;;;300.27;163.55;;;;;;;;;;5070362;28;20020;-54
2020/12/19 00:54:11;;;;;;;295.05;161.68;;;;;;;;;;5086459;28;20044;-54
2020/12/19 00:56:37;;;;;;;301.13;167.52;;;;;;;;;;5091868;28;20490;-53
2020/12/19 00:59:03;;;;;;;308.73;166.95;;;;;;;;;;5090345;28;20043;-52
2020/12/19 01:01:29;;;;;;;299.75;162.15;;;;;;;;;;5090983;28;20032;-53
2020/12/19 01:03:57;;;;;;;293.45;160.55;;;;;;;;;;5092670;28;20028;-54
2020/12/19 01:06:23;;;;;;;284.48;148.95;;;;;;;;;;5095054;28;20028;-54
2020/12/19 01:08:50;;;;;;;303.80;157.32;;;;;;;;;;5094968;28;20028;-54
2020/12/19 01:11:17;;;;;;;268.67;143.25;;;;;;;;;;5095609;28;20081;-53
2020/12/19 01:13:44;;;;;;;219.07;113.03;;;;;;;;;;5094843;28;20052;-54
2020/12/19 01:16:15;;;;;;;198.60;101.82;;;;;;;;;;5091709;28;20024;-54
2020/12/19 01:18:41;;;;;;;200.25;101.72;;;;;;;;;;5093503;28;20040;-54
2020/12/19 01:21:11;;;;;;;186.60;92.43;;;;;;;;;;5088232;28;20027;-52
2020/12/19 01:23:37;;;;;;;177.20;87.13;;;;;;;;;;5091768;28;20528;-54
2020/12/19 01:26:03;;;;;;;184.23;89.70;;;;;;;;;;5095207;28;20365;-54
2020/12/19 01:28:29;;;;;;;179.90;88.68;;;;;;;;;;5095502;28;20024;-53
2020/12/19 01:30:55;;;;;;;165.10;76.95;;;;;;;;;;5076823;28;20465;-54
2020/12/19 01:33:21;;;;;;;159.07;73.82;;;;;;;;;;5093827;28;20032;-54
2020/12/19 01:35:47;;;;;;;169.63;73.93;;;;;;;;;;5090663;28;20024;-54
2020/12/19 01:38:13;;;;;;;162.32;74.35;;;;;;;;;;5094202;28;20395;-54
2020/12/19 01:40:39;;;;;;;172.95;76.80;;;;;;;;;;5095074;28;20539;-53
2020/12/19 01:43:05;;;;;;;152.45;70.43;;;;;;;;;;5094775;28;20062;-54
2020/12/19 01:45:31;;;;;;;157.07;70.03;;;;;;;;;;5085183;28;20070;-54
2020/12/19 01:47:57;;;;;;;155.25;69.20;;;;;;;;;;5092026;28;20090;-52
2020/12/19 01:50:24;;;;;;;153.38;69.47;;;;;;;;;;5093800;28;20035;-53
2020/12/19 01:52:50;;;;;;;153.20;71.70;;;;;;;;;;5094184;28;20507;-54
2020/12/19 01:55:16;;;;;;;158.70;72.57;;;;;;;;;;5094096;28;20063;-51
2020/12/19 01:57:43;;;;;;;156.98;73.20;;;;;;;;;;5093764;28;20028;-52
2020/12/19 02:00:09;;;;;;;150.13;69.15;;;;;;;;;;5093914;28;20030;-52
2020/12/19 02:02:35;;;;;;;150.18;71.20;;;;;;;;;;5094230;28;20103;-52
2020/12/19 02:05:01;;;;;;;148.55;69.80;;;;;;;;;;5092810;28;20031;-54
2020/12/19 02:07:27;;;;;;;154.52;68.57;;;;;;;;;;5094106;28;20055;-53
2020/12/19 02:09:54;;;;;;;154.38;70.15;;;;;;;;;;5091784;28;20115;-52
2020/12/19 02:12:20;;;;;;;143.85;69.00;;;;;;;;;;5094216;28;20020;-54
2020/12/19 02:14:46;;;;;;;157.20;72.68;;;;;;;;;;5094110;28;20020;-56
2020/12/19 02:17:13;;;;;;;156.57;71.40;;;;;;;;;;5094738;28;20130;-52
2020/12/19 02:19:39;;;;;;;161.43;72.78;;;;;;;;;;5080865;28;20395;-53
2020/12/19 02:22:06;;;;;;;151.85;68.57;;;;;;;;;;5086592;28;20039;-53
2020/12/19 02:24:33;;;;;;;152.13;70.40;;;;;;;;;;5092354;28;20107;-54
2020/12/19 02:26:59;;;;;;;155.88;72.13;;;;;;;;;;5094382;28;20046;-54
2020/12/19 02:29:26;;;;;;;155.48;71.68;;;;;;;;;;5094118;28;20467;-53
2020/12/19 02:31:53;;;;;;;157.18;72.13;;;;;;;;;;5094253;28;20036;-55
2020/12/19 02:34:19;;;;;;;158.15;71.53;;;;;;;;;;5093949;28;20027;-54
2020/12/19 02:36:45;;;;;;;156.32;73.43;;;;;;;;;;5093570;28;20027;-54
2020/12/19 02:39:11;;;;;;;161.00;74.57;;;;;;;;;;5082647;28;20039;-54
2020/12/19 02:41:38;;;;;;;159.43;74.20;;;;;;;;;;5093971;28;20024;-54
2020/12/19 02:44:04;;;;;;;158.50;70.05;;;;;;;;;;5093376;28;20028;-54
2020/12/19 02:46:30;;;;;;;138.60;60.20;;;;;;;;;;5092568;28;20433;-54
2020/12/19 02:48:56;;;;;;;139.13;59.75;;;;;;;;;;5093586;28;20039;-54
2020/12/19 02:51:22;;;;;;;147.95;65.38;;;;;;;;;;5093670;28;20016;-53
2020/12/19 02:53:48;;;;;;;153.60;66.22;;;;;;;;;;5093581;28;20066;-54
2020/12/19 02:56:14;;;;;;;142.60;61.10;;;;;;;;;;5093407;28;20028;-54
2020/12/19 02:58:41;;;;;;;144.35;61.90;;;;;;;;;;5093561;28;20039;-55
2020/12/19 03:01:07;;;;;;;150.52;64.20;;;;;;;;;;5093502;28;20110;-55
2020/12/19 03:03:33;;;;;;;157.68;66.78;;;;;;;;;;5092834;28;20032;-55
2020/12/19 03:05:59;;;;;;;152.75;69.47;;;;;;;;;;5092327;28;20039;-54
2020/12/19 03:08:25;;;;;;;154.68;70.10;;;;;;;;;;5093199;28;20039;-52
2020/12/19 03:10:51;;;;;;;141.70;61.08;;;;;;;;;;5093195;28;20077;-54
2020/12/19 03:13:17;;;;;;;140.75;59.70;;;;;;;;;;5092957;28;20020;-53
2020/12/19 03:15:43;;;;;;;133.30;54.85;;;;;;;;;;5092601;28;20036;-52
2020/12/19 03:18:09;;;;;;;134.48;53.58;;;;;;;;;;5093109;28;20058;-55
2020/12/19 03:20:35;;;;;;;126.05;52.33;;;;;;;;;;5093266;28;20353;-53
2020/12/19 03:23:01;;;;;;;117.60;50.58;;;;;;;;;;5092837;28;20480;-54
2020/12/19 03:25:27;;;;;;;124.85;53.75;;;;;;;;;;5092889;28;20032;-54
2020/12/19 03:27:54;;;;;;;135.52;59.72;;;;;;;;;;5092680;28;20032;-54
2020/12/19 03:30:23;;;;;;;124.70;54.88;;;;;;;;;;5092876;28;20020;-53
2020/12/19 03:32:50;;;;;;;129.80;53.83;;;;;;;;;;5092574;28;20035;-53
2020/12/19 03:35:16;;;;;;;113.85;50.60;;;;;;;;;;5090902;28;20031;-52
2020/12/19 03:37:42;;;;;;;118.20;50.63;;;;;;;;;;5086721;28;20032;-51
2020/12/19 03:40:08;;;;;;;123.70;55.88;;;;;;;;;;5092950;28;20059;-54
2020/12/19 03:42:34;;;;;;;119.75;50.95;;;;;;;;;;5092815;28;20031;-55
2020/12/19 03:45:00;;;;;;;123.53;51.80;;;;;;;;;;5092637;28;20023;-52
2020/12/19 03:47:26;;;;;;;118.35;49.25;;;;;;;;;;5092489;28;20495;-51
2020/12/19 03:49:52;;;;;;;111.43;48.50;;;;;;;;;;5092904;28;20024;-54
2020/12/19 03:52:18;;;;;;;109.82;49.10;;;;;;;;;;5092319;28;20035;-53
2020/12/19 03:54:44;;;;;;;116.75;49.22;;;;;;;;;;5092237;28;20041;-54
2020/12/19 03:57:10;;;;;;;118.40;48.80;;;;;;;;;;5092315;28;20119;-53
2020/12/19 03:59:36;;;;;;;109.43;46.85;;;;;;;;;;5092695;28;20456;-53
2020/12/19 04:02:02;;;;;;;117.25;48.25;;;;;;;;;;5092438;28;20063;-52
2020/12/19 04:04:28;;;;;;;114.85;50.78;;;;;;;;;;5091834;28;20464;-53
2020/12/19 04:06:54;;;;;;;121.45;50.55;;;;;;;;;;5092775;28;20036;-53
2020/12/19 04:09:20;;;;;;;111.40;50.35;;;;;;;;;;5092189;28;20020;-54
2020/12/19 04:11:46;;;;;;;101.22;48.03;;;;;;;;;;5092505;28;20081;-55
2020/12/19 04:14:12;;;;;;;106.55;51.25;;;;;;;;;;5091749;28;20024;-54
2020/12/19 04:16:38;;;;;;;98.40;47.08;;;;;;;;;;5092535;28;20398;-54
2020/12/19 04:19:04;;;;;;;95.50;45.85;;;;;;;;;;5091730;28;20052;-54
2020/12/19 04:21:30;;;;;;;99.30;46.15;;;;;;;;;;5092185;28;20085;-55
2020/12/19 04:23:57;;;;;;;109.05;49.05;;;;;;;;;;5092283;28;20106;-55
2020/12/19 04:26:23;;;;;;;102.38;48.85;;;;;;;;;;5092207;28;20036;-55
2020/12/19 04:28:49;;;;;;;110.47;51.08;;;;;;;;;;5092343;28;20119;-54
2020/12/19 04:31:15;;;;;;;106.22;49.40;;;;;;;;;;5092162;28;20035;-54
2020/12/19 04:33:41;;;;;;;89.72;45.22;;;;;;;;;;5091785;28;20024;-55
2020/12/19 04:36:07;;;;;;;101.97;48.72;;;;;;;;;;5092041;28;20017;-55
2020/12/19 04:38:33;;;;;;;105.32;49.67;;;;;;;;;;5093141;28;20092;-53
2020/12/19 04:40:59;;;;;;;102.65;47.78;;;;;;;;;;5095929;28;20146;-54
2020/12/19 04:43:25;;;;;;;103.32;48.08;;;;;;;;;;5095970;28;20024;-54
2020/12/19 04:45:52;;;;;;;132.85;58.10;;;;;;;;;;5096386;28;20095;-54
2020/12/19 04:48:18;;;;;;;114.97;54.00;;;;;;;;;;5096313;28;20129;-55
2020/12/19 04:50:46;;;;;;;129.98;58.50;;;;;;;;;;5096324;28;20460;-55
2020/12/19 04:53:19;;;;;;;124.03;60.90;;;;;;;;;;5088429;28;20106;-54
2020/12/19 04:55:45;;;;;;;136.63;61.40;;;;;;;;;;5076088;28;20024;-55
2020/12/19 04:58:12;;;;;;;138.38;57.58;;;;;;;;;;5075799;28;20118;-54
2020/12/19 05:00:38;;;;;;;111.57;51.97;;;;;;;;;;5075636;28;20032;-55
2020/12/19 05:03:04;;;;;;;114.95;53.05;;;;;;;;;;5075917;28;20095;-55
2020/12/19 05:05:30;;;;;;;128.85;57.40;;;;;;;;;;5075699;28;20040;-52
2020/12/19 05:07:57;;;;;;;131.07;60.15;;;;;;;;;;5075220;28;20390;-54
2020/12/19 05:10:23;;;;;;;139.90;62.47;;;;;;;;;;5075367;28;20480;-53
2020/12/19 05:12:55;;;;;;;161.20;63.63;;;;;;;;;;5075360;28;20032;-53
2020/12/19 05:15:22;;;;;;;112.95;52.40;;;;;;;;;;5075543;28;20410;-53
2020/12/19 05:17:55;;;;;;;119.47;55.15;;;;;;;;;;5075080;28;20090;-52
2020/12/19 05:20:21;;;;;;;114.75;50.70;;;;;;;;;;5075553;28;20127;-54
2020/12/19 05:22:51;;;;;;;106.50;50.67;;;;;;;;;;5074961;28;20073;-54
2020/12/19 05:25:17;;;;;;;101.25;48.63;;;;;;;;;;5074443;28;20029;-54
2020/12/19 05:27:44;;;;;;;103.00;44.30;;;;;;;;;;5074944;28;20545;-52
2020/12/19 05:30:11;;;;;;;136.70;64.95;;;;;;;;;;5075089;28;20100;-52
2020/12/19 05:32:42;;;;;;;108.47;52.25;;;;;;;;;;5075108;28;20032;-55
2020/12/19 05:35:08;;;;;;;83.22;41.53;;;;;;;;;;5074732;28;20016;-54
2020/12/19 05:37:34;;;;;;;82.47;37.67;;;;;;;;;;5074848;28;20037;-54
2020/12/19 05:40:00;;;;;;;156.88;73.53;;;;;;;;;;5072793;28;20071;-54
2020/12/19 05:42:26;;;;;;;100.75;46.70;;;;;;;;;;5074604;28;20101;-54
2020/12/19 05:44:52;;;;;;;103.03;47.40;;;;;;;;;;5074787;28;20029;-53
2020/12/19 05:47:18;;;;;;;89.30;40.75;;;;;;;;;;5074766;28;20374;-54
2020/12/19 05:49:44;;;;;;;86.97;39.30;;;;;;;;;;5074557;28;20028;-55
2020/12/19 05:52:10;;;;;;;91.90;42.65;;;;;;;;;;5074445;28;20032;-54
2020/12/19 05:54:41;;;;;;;86.30;39.95;;;;;;;;;;5074238;28;20052;-54
2020/12/19 05:57:09;;;;;;;81.55;37.10;;;;;;;;;;5073782;28;20037;-55
2020/12/19 05:59:36;;;;;;;81.85;34.70;;;;;;;;;;5074500;28;20130;-54
2020/12/19 06:02:03;;;;;;;83.97;35.40;;;;;;;;;;5074400;28;20036;-55
2020/12/19 06:04:29;;;;;;;85.75;36.70;;;;;;;;;;5074178;28;20086;-55
2020/12/19 06:06:56;;;;;;;82.50;36.80;;;;;;;;;;5074135;28;20025;-54
2020/12/19 06:09:22;;;;;;;83.15;37.15;;;;;;;;;;5073988;28;20012;-54
2020/12/19 06:12:04;;;;;;;77.10;34.55;;;;;;;;;;5073206;28;20031;-54
2020/12/19 06:14:34;;;;;;;82.93;34.85;;;;;;;;;;5072749;28;20027;-52
2020/12/19 06:17:08;;;;;;;73.25;33.55;;;;;;;;;;5072164;28;20538;-54
2020/12/19 06:19:35;;;;;;;85.65;39.85;;;;;;;;;;5073925;28;20116;-54
2020/12/19 06:22:01;;;;;;;81.13;37.17;;;;;;;;;;5073778;28;20536;-55
2020/12/19 06:24:53;;;;;;;76.18;35.10;;;;;;;;;;5074050;28;20036;-54
2020/12/19 06:27:22;;;;;;;71.95;34.03;;;;;;;;;;5070078;28;20407;-53
2020/12/19 06:29:48;;;;;;;73.25;33.55;;;;;;;;;;5073780;28;20033;-54
2020/12/19 06:32:32;;;;;;;72.32;34.58;;;;;;;;;;5073979;28;20020;-53
2020/12/19 06:35:05;;;;;;;79.43;35.85;;;;;;;;;;5073653;28;20028;-53
2020/12/19 06:37:32;;;;;;;79.18;35.55;;;;;;;;;;5074284;28;20048;-52
2020/12/19 06:40:31;;;;;;;74.35;37.15;;;;;;;;;;5072779;28;20533;-55
2020/12/19 06:43:09;;;;;;;97.07;43.85;;;;;;;;;;5001736;28;20092;-55
2020/12/19 06:45:35;;;;;;;91.50;43.55;;;;;;;;;;5005903;28;20038;-55
2020/12/19 06:48:01;;;;;;;95.90;46.72;;;;;;;;;;5012131;28;20501;-54
2020/12/19 06:50:53;;;;;;;74.00;34.08;;;;;;;;;;5011913;28;20034;-53
2020/12/19 06:53:19;;;;;;;69.00;32.28;;;;;;;;;;4941149;28;20080;-51
2020/12/19 06:55:45;;;;;;;70.05;33.42;;;;;;;;;;4952972;29;20110;-52
2020/12/19 06:58:12;;;;;;;70.63;34.72;;;;;;;;;;4952073;28;20055;-52
2020/12/19 07:00:38;;;;;;;71.20;31.95;;;;;;;;;;4952069;28;20031;-53
2020/12/19 07:03:04;;;;;;;67.93;31.52;;;;;;;;;;4950878;28;20035;-52
2020/12/19 07:05:35;;;;;;;74.60;33.97;;;;;;;;;;4952106;28;20030;-54
2020/12/19 07:08:23;;;;;;;72.15;33.33;;;;;;;;;;4952300;28;20116;-54
2020/12/19 07:10:50;;;;;;;74.38;33.28;;;;;;;;;;4950526;28;20479;-54
2020/12/19 07:13:16;;;;;;;89.72;42.60;;;;;;;;;;4952949;28;20151;-54
2020/12/19 07:15:45;;;;;;;104.00;52.13;;;;;;;;;;4950278;28;20394;-52
2020/12/19 07:18:32;;;;;;;88.05;45.35;;;;;;;;;;4959353;28;20129;-53
2020/12/19 07:21:01;;;;;;;114.88;53.92;;;;;;;;;;4969805;28;20046;-54
2020/12/19 07:23:28;;;;;;;144.98;59.88;;;;;;;;;;4970570;28;20035;-51
2020/12/19 07:25:54;;;;;;;154.80;66.75;;;;;;;;;;4971771;28;20054;-53
2020/12/19 07:28:20;;;;;;;133.57;60.17;;;;;;;;;;4970999;28;20026;-51
2020/12/19 07:30:47;;;;;;;103.97;52.45;;;;;;;;;;5036206;28;20067;-53
2020/12/19 07:33:13;;;;;;;86.40;44.63;;;;;;;;;;5055794;28;20027;-52
2020/12/19 07:35:39;;;;;;;96.35;48.53;;;;;;;;;;5060588;28;20041;-53
2020/12/19 07:38:06;;;;;;;130.13;59.47;;;;;;;;;;5071132;28;20438;-52
2020/12/19 07:40:32;;;;;;;113.10;59.92;;;;;;;;;;5071627;28;20377;-52
2020/12/19 07:43:06;;;;;;;97.45;52.05;;;;;;;;;;5067453;28;20028;-53
2020/12/19 07:45:32;;;;;;;104.60;56.58;;;;;;;;;;5065907;28;20163;-52
2020/12/19 07:47:58;;;;;;;109.70;53.97;;;;;;;;;;5071232;28;20020;-51
2020/12/19 07:50:28;;;;;;;100.53;48.97;;;;;;;;;;5071559;28;20075;-52
2020/12/19 07:53:03;;;;;;;99.80;49.70;;;;;;;;;;5069083;28;20040;-53
2020/12/19 07:55:29;;;;;;;120.13;57.28;;;;;;;;;;5062921;28;20041;-53
2020/12/19 07:57:56;;;;;;;96.53;50.42;;;;;;;;;;5080895;28;20071;-52
2020/12/19 08:00:23;;;;;;;90.03;46.88;;;;;;;;;;5081087;28;20411;-52
2020/12/19 08:02:49;;;;;;;235.35;134.55;;;;;;;;;;5076418;28;20059;-53
2020/12/19 08:05:15;;;;;;;115.15;62.85;;;;;;;;;;5091982;28;20020;-51
2020/12/19 08:07:41;;;;;;;114.68;59.53;;;;;;;;;;5092456;28;20077;-52
2020/12/19 08:10:07;;;;;;;108.65;55.13;;;;;;;;;;5085048;28;20032;-51
2020/12/19 08:12:33;;;;;;;118.30;62.58;;;;;;;;;;5072618;28;20025;-51
2020/12/19 08:15:10;;;;;;;102.78;54.40;;;;;;;;;;5072469;28;20031;-52
2020/12/19 08:17:46;;;;;;;104.80;54.65;;;;;;;;;;5082249;28;20024;-54
2020/12/19 08:20:13;;;;;;;117.40;62.00;;;;;;;;;;5087677;28;20020;-53
2020/12/19 08:22:40;;;;;;;110.50;56.20;;;;;;;;;;5092287;28;20039;-52
2020/12/19 08:25:06;;;;;;;87.60;41.22;;;;;;;;;;5092208;28;20134;-53
2020/12/19 08:27:44;;;;;;;78.82;39.85;;;;;;;;;;5091533;28;20032;-53
2020/12/19 08:30:27;;;;;;;80.80;39.83;;;;;;;;;;5081751;28;20442;-53
2020/12/19 08:33:00;;;;;;;66.00;28.55;;;;;;;;;;5075814;28;20490;-52
2020/12/19 08:35:29;;;;;;;74.88;35.08;;;;;;;;;;5089264;28;20024;-52
2020/12/19 08:38:12;;;;;;;68.78;33.25;;;;;;;;;;5085166;28;20081;-52
2020/12/19 08:40:38;;;;;;;;;;;;;;;;;;5070334;28;20391;-52
2020/12/19 08:43:04;;;;;;;67.07;32.58;;;;;;;;;;5070759;28;19908;-51
2020/12/19 08:45:33;;;;;;;71.22;33.63;;;;;;;;;;5071076;28;20016;-52
2020/12/19 08:48:10;;;;;;;68.97;34.58;;;;;;;;;;5071287;28;20028;-51
2020/12/19 08:50:37;;;;;;;78.00;39.78;;;;;;;;;;5071902;28;20086;-53
2020/12/19 08:53:05;;;;;;;69.25;34.97;;;;;;;;;;5070971;28;20102;-54
2020/12/19 08:55:31;;;;;;;75.57;37.15;;;;;;;;;;5061139;28;20021;-52
2020/12/19 08:57:57;;;;;;;74.22;37.03;;;;;;;;;;5056631;28;20032;-54
2020/12/19 09:00:23;;;;;;;70.65;31.95;;;;;;;;;;5071571;28;20020;-52
2020/12/19 09:02:50;;;;;;;77.80;39.47;;;;;;;;;;5071034;28;20039;-53
2020/12/19 09:05:16;;;;;;;77.40;37.40;;;;;;;;;;5071444;28;20027;-53
2020/12/19 09:07:42;;;;;;;99.07;52.03;;;;;;;;;;5071022;28;20020;-54
2020/12/19 09:10:25;;;;;;;94.32;47.28;;;;;;;;;;5067767;28;20476;-54
2020/12/19 09:13:14;;;;;;;103.30;55.05;;;;;;;;;;5060173;28;20479;-54
2020/12/19 09:15:41;;;;;;;122.70;65.93;;;;;;;;;;5070072;28;20029;-55
2020/12/19 09:18:23;;;;;;;116.90;64.75;;;;;;;;;;5064918;28;20408;-54
2020/12/19 09:20:49;;;;;;;;;;;;;;;;;;5064954;28;20028;-55
2020/12/19 09:23:15;;;;;;;120.43;60.60;;;;;;;;;;5069276;28;19908;-54
2020/12/19 09:25:41;;;;;;;84.75;43.78;;;;;;;;;;5072405;28;20040;-56
2020/12/19 09:28:07;;;;;;;72.75;35.55;;;;;;;;;;5073008;28;20056;-55
2020/12/19 09:30:33;;;;;;;88.78;46.80;;;;;;;;;;5074119;28;20016;-54
2020/12/19 09:32:59;;;;;;;77.85;39.58;;;;;;;;;;5074499;28;20043;-56
2020/12/19 09:35:29;;;;;;;80.25;41.05;;;;;;;;;;5074193;28;20024;-55
2020/12/19 09:37:55;;;;;;;207.13;119.20;;;;;;;;;;5074750;28;20037;-53
2020/12/19 09:40:21;;;;;;;106.28;56.80;;;;;;;;;;5074632;28;20047;-55
2020/12/19 09:42:48;;;;;;;161.02;90.57;;;;;;;;;;5075106;28;20090;-55
2020/12/19 09:45:14;;;;;;;177.65;101.35;;;;;;;;;;5074449;28;20383;-54
2020/12/19 09:47:41;;;;;;;207.43;119.43;;;;;;;;;;5074810;28;20033;-54
2020/12/19 09:50:10;;;;;;;148.98;87.82;;;;;;;;;;5074588;28;20539;-55
2020/12/19 09:52:37;;;;;;;143.13;80.68;;;;;;;;;;5076897;28;20043;-54
2020/12/19 09:55:05;;;;;;;123.80;70.57;;;;;;;;;;5094842;28;20506;-54
2020/12/19 09:57:31;;;;;;;108.10;60.35;;;;;;;;;;5094563;28;20040;-55
2020/12/19 09:59:57;;;;;;;105.43;57.28;;;;;;;;;;5094328;28;20494;-55
2020/12/19 10:02:23;;;;;;;87.18;47.58;;;;;;;;;;5094790;28;20434;-55
2020/12/19 10:04:49;;;;;;;79.03;41.65;;;;;;;;;;5094712;28;20081;-54
2020/12/19 10:07:15;;;;;;;91.95;46.80;;;;;;;;;;5094665;28;20609;-55
2020/12/19 10:09:41;;;;;;;96.72;50.38;;;;;;;;;;5094545;28;20016;-55
2020/12/19 10:12:07;;;;;;;74.25;41.47;;;;;;;;;;5094533;28;20481;-55
2020/12/19 10:14:33;;;;;;;86.75;47.38;;;;;;;;;;5094424;28;20099;-56
2020/12/19 10:16:59;;;;;;;84.97;45.35;;;;;;;;;;5094671;28;20157;-55
2020/12/19 10:19:25;;;;;;;75.68;38.33;;;;;;;;;;5094500;28;20468;-55
2020/12/19 10:21:51;;;;;;;80.47;41.67;;;;;;;;;;5094158;28;20117;-55
2020/12/19 10:24:18;;;;;;;74.15;39.00;;;;;;;;;;5094297;28;20036;-55
2020/12/19 10:26:50;;;;;;;81.60;44.83;;;;;;;;;;5094524;28;20074;-55
2020/12/19 10:29:16;;;;;;;;;;;;;;;;;;5094420;28;20036;-55
2020/12/19 10:31:42;;;;;;;69.05;37.50;;;;;;;;;;5094435;28;19904;-55
2020/12/19 10:34:08;;;;;;;59.90;31.40;;;;;;;;;;5094027;28;20213;-55
2020/12/19 10:36:34;;;;;;;83.28;45.47;;;;;;;;;;5092745;28;20063;-55
2020/12/19 10:39:00;;;;;;;90.07;46.30;;;;;;;;;;5094234;28;20391;-54
2020/12/19 10:41:26;;;;;;;207.88;104.28;;;;;;;;;;5093771;28;20024;-55
2020/12/19 10:43:53;;;;;;;112.57;59.38;;;;;;;;;;5094052;28;20016;-54
2020/12/19 10:46:22;;;;;;;102.07;56.17;;;;;;;;;;5094153;28;20064;-55
2020/12/19 10:48:48;;;;;;;85.43;45.50;;;;;;;;;;5093924;28;20020;-55
2020/12/19 10:51:15;;;;;;;62.72;35.22;;;;;;;;;;5094379;28;20067;-54
2020/12/19 10:53:44;;;;;;;71.25;38.33;;;;;;;;;;5093512;28;20064;-55
2020/12/19 10:56:19;;;;;;;88.63;47.75;;;;;;;;;;5094404;28;20024;-55
2020/12/19 10:58:45;;;;;;;77.43;41.58;;;;;;;;;;5093658;28;20032;-56
2020/12/19 11:01:12;;;;;;;75.00;40.58;;;;;;;;;;5093293;28;20035;-54
2020/12/19 11:03:38;;;;;;;66.68;34.28;;;;;;;;;;5093837;28;20027;-53
2020/12/19 11:06:04;;;;;;;71.18;37.50;;;;;;;;;;5093483;28;20851;-54
2020/12/19 11:08:30;;;;;;;68.20;36.00;;;;;;;;;;5092968;28;20043;-53
2020/12/19 11:10:56;;;;;;;73.18;37.70;;;;;;;;;;5093175;28;20027;-52
2020/12/19 11:13:22;;;;;;;70.30;37.33;;;;;;;;;;5093122;28;20030;-55
2020/12/19 11:15:48;;;;;;;96.65;52.45;;;;;;;;;;5085088;28;20024;-54
2020/12/19 11:18:14;;;;;;;74.57;40.22;;;;;;;;;;5072099;28;20040;-53
2020/12/19 11:20:40;;;;;;;76.30;42.40;;;;;;;;;;5071664;28;20028;-53
2020/12/19 11:23:06;;;;;;;102.93;54.70;;;;;;;;;;5073788;28;20032;-54
2020/12/19 11:25:32;;;;;;;104.90;57.83;;;;;;;;;;5074365;28;20024;-54
2020/12/19 11:27:58;;;;;;;170.38;95.13;;;;;;;;;;5077692;28;20049;-55
2020/12/19 11:30:24;;;;;;;118.93;63.85;;;;;;;;;;5092642;28;20125;-55
2020/12/19 11:32:50;;;;;;;137.38;73.95;;;;;;;;;;5091797;28;20100;-53
2020/12/19 11:35:16;;;;;;;135.52;74.28;;;;;;;;;;5092172;28;20028;-55
2020/12/19 11:37:42;;;;;;;95.05;54.03;;;;;;;;;;5092795;28;20089;-55
2020/12/19 11:40:08;;;;;;;91.50;47.65;;;;;;;;;;5092500;28;20514;-55
2020/12/19 11:42:37;;;;;;;90.55;46.25;;;;;;;;;;5092034;28;20024;-55
2020/12/19 11:45:03;;;;;;;66.30;37.10;;;;;;;;;;5092526;28;20051;-55
2020/12/19 11:47:29;;;;;;;67.10;37.75;;;;;;;;;;5090624;28;20038;-55
2020/12/19 11:49:55;;;;;;;55.92;32.05;;;;;;;;;;5092099;28;20028;-55
2020/12/19 11:52:21;;;;;;;53.63;29.17;;;;;;;;;;5090595;28;20040;-55
2020/12/19 11:54:48;;;;;;;50.05;27.92;;;;;;;;;;5091502;28;20064;-54
2020/12/19 11:57:14;;;;;;;56.03;30.73;;;;;;;;;;5091741;28;20152;-55
2020/12/19 11:59:40;;;;;;;66.10;35.75;;;;;;;;;;5092114;28;20032;-55
2020/12/19 12:02:06;;;;;;;70.20;38.55;;;;;;;;;;5090838;28;20103;-55
2020/12/19 12:04:32;;;;;;;67.65;42.03;;;;;;;;;;5086254;28;20024;-54
2020/12/19 12:06:58;;;;;;;66.38;38.97;;;;;;;;;;5083096;28;20028;-55
2020/12/19 12:09:24;;;;;;;62.17;34.15;;;;;;;;;;5089023;28;20410;-55
2020/12/19 12:11:50;;;;;;;60.90;33.88;;;;;;;;;;5091264;28;20032;-54
2020/12/19 12:14:16;;;;;;;74.15;41.67;;;;;;;;;;5091184;28;20032;-55
2020/12/19 12:16:42;;;;;;;48.50;26.58;;;;;;;;;;5082909;28;20024;-55
2020/12/19 12:19:08;;;;;;;54.20;29.40;;;;;;;;;;5091291;28;20024;-55
2020/12/19 12:21:35;;;;;;;85.93;48.72;;;;;;;;;;5085579;28;20111;-54
2020/12/19 12:24:01;;;;;;;80.15;47.05;;;;;;;;;;5071919;28;20368;-53
2020/12/19 12:26:28;;;;;;;72.18;39.42;;;;;;;;;;5091457;28;20421;-55
2020/12/19 12:28:54;;;;;;;86.20;47.47;;;;;;;;;;5090740;28;20569;-53
2020/12/19 12:31:30;;;;;;;69.90;39.67;;;;;;;;;;5091049;28;20044;-54
2020/12/19 12:33:56;;;;;;;69.22;41.10;;;;;;;;;;5090770;28;20035;-55
2020/12/19 12:36:23;;;;;;;61.55;34.38;;;;;;;;;;5086482;28;20470;-55
2020/12/19 12:38:50;;;;;;;55.00;31.58;;;;;;;;;;5091347;28;20119;-55
2020/12/19 12:41:16;;;;;;;53.05;30.00;;;;;;;;;;5090673;28;20031;-55
2020/12/19 12:43:42;;;;;;;50.85;27.90;;;;;;;;;;5090748;28;20022;-55
2020/12/19 12:46:09;;;;;;;75.70;46.53;;;;;;;;;;5088594;28;20027;-55
2020/12/19 12:48:35;;;;;;;71.97;42.10;;;;;;;;;;5090716;28;20107;-54
2020/12/19 12:51:01;;;;;;;83.28;45.83;;;;;;;;;;5090584;28;20028;-55
2020/12/19 12:53:27;;;;;;;59.95;33.63;;;;;;;;;;5088812;28;20047;-54
2020/12/19 12:55:53;;;;;;;51.72;30.20;;;;;;;;;;5090370;28;20024;-53
2020/12/19 12:58:19;;;;;;;59.08;33.90;;;;;;;;;;5090436;28;20036;-55
2020/12/19 13:00:45;;;;;;;56.72;32.47;;;;;;;;;;5094145;28;20055;-54
2020/12/19 13:03:11;;;;;;;56.38;31.48;;;;;;;;;;5095179;28;20063;-55
2020/12/19 13:05:38;;;;;;;79.15;41.35;;;;;;;;;;5094515;28;20020;-55
2020/12/19 13:08:04;;;;;;;69.50;41.13;;;;;;;;;;5095002;28;20111;-54
2020/12/19 13:10:30;;;;;;;60.85;34.00;;;;;;;;;;5094191;28;20020;-54
2020/12/19 13:12:56;;;;;;;66.43;38.20;;;;;;;;;;5093166;28;20126;-54
2020/12/19 13:15:22;;;;;;;78.18;42.42;;;;;;;;;;5094013;28;20352;-54
2020/12/19 13:17:48;;;;;;;74.45;42.88;;;;;;;;;;5094666;28;20055;-54
2020/12/19 13:20:14;;;;;;;154.05;75.35;;;;;;;;;;5077256;28;20028;-54
2020/12/19 13:22:40;;;;;;;110.10;58.47;;;;;;;;;;5093945;28;20035;-55
2020/12/19 13:25:06;;;;;;;85.00;45.95;;;;;;;;;;5093768;28;20040;-55
2020/12/19 13:27:32;;;;;;;61.35;32.90;;;;;;;;;;5094517;28;20043;-53
2020/12/19 13:29:58;;;;;;;55.35;32.53;;;;;;;;;;5094457;28;20021;-55
2020/12/19 13:32:24;;;;;;;69.28;39.25;;;;;;;;;;5095244;28;20467;-54
2020/12/19 13:34:50;;;;;;;60.35;33.60;;;;;;;;;;5095370;28;20020;-55
2020/12/19 13:37:16;;;;;;;91.18;50.30;;;;;;;;;;5094878;28;20032;-54
2020/12/19 13:39:42;;;;;;;128.38;64.38;;;;;;;;;;5095542;28;20016;-53
2020/12/19 13:42:08;;;;;;;92.53;49.85;;;;;;;;;;5095143;28;20387;-53
2020/12/19 13:44:34;;;;;;;80.65;44.80;;;;;;;;;;5074867;28;20392;-54
2020/12/19 13:47:02;;;;;;;72.65;38.17;;;;;;;;;;5088581;28;20059;-55
2020/12/19 13:49:28;;;;;;;116.70;63.95;;;;;;;;;;5093684;28;20020;-53
2020/12/19 13:51:54;;;;;;;117.68;64.05;;;;;;;;;;5092681;28;20471;-54
2020/12/19 13:54:20;;;;;;;86.00;47.90;;;;;;;;;;5076183;28;20056;-54
2020/12/19 13:56:46;;;;;;;103.88;58.42;;;;;;;;;;5073009;28;20025;-52
2020/12/19 13:59:13;;;;;;;79.22;45.15;;;;;;;;;;5073740;28;20037;-55
2020/12/19 14:01:39;;;;;;;85.03;48.35;;;;;;;;;;5073536;28;20039;-55
2020/12/19 14:04:05;;;;;;;104.25;58.33;;;;;;;;;;5073657;28;20032;-54
2020/12/19 14:06:32;;;;;;;91.55;50.22;;;;;;;;;;5072971;28;20055;-53
2020/12/19 14:08:58;;;;;;;66.35;37.92;;;;;;;;;;5073566;28;20368;-53